Edwards Creek Valley, Nevada Weather observations

Data are for observation ending at time listed.
 Day   Time    Ave.   Ave.  Ave.  Vector   Max.   Stn.    Total    Solar   Ave.  
  of    of     Air    Rel.  Wind   Wind    Wind   Baro.  Precip.   Rad.    Soil  
Year   Day     Temp.  Hum.  Speed  Dir.    Gust   Pres.                    Temp. 
2015   (PST)    F      %     mph   deg.    mph     mb.     in.     W/m2     F   
------------------------------------------------------------------------------
 185   18:30   61.3    89    4.1   190      7.4    849     0.01       8     75.3
 185   18:40   61.1    90    2.8   164      4.4    849     0.00       6     75.1
 185   18:50   61.4    88    2.7   118      4.1    849     0.00       6     75.0
 185   19:00   62.1    86    2.6   114      3.9    849     0.00       7     74.8
 185   19:10   62.2    89    3.4    86      6.4    849     0.00       4     74.8
 185   19:20   62.0    91    4.2    56      7.2    849     0.00       2     74.7
 185   19:30   61.6    92    4.7    47      8.3    848     0.00       1     74.6
 185   19:40   61.3    92    6.2    43     10.0    848     0.00       0     74.5
 185   19:50   61.1    92    1.5    52      3.5    849     0.00       0     74.4
 185   20:00   61.1    92    1.9   226      3.7    849     0.00       0     74.3
 185   20:10   60.9    93    1.9   262      3.4    849     0.00       0     74.2
 185   20:20   60.6    93    2.2   278      3.4    849     0.00       0     74.0
 185   20:30   60.1    93    2.8   170      4.2    849     0.00       0     73.9
 185   20:40   59.8    94    4.2   176      5.8    849     0.00       0     73.8
 185   20:50   59.7    94    2.7   186      4.9    848     0.00       0     73.6
 185   21:00   59.8    93    4.5   221      8.9    848     0.00       0     73.4
 185   21:10   60.1    91    8.0   212     14.7    848     0.00       0     73.3
 185   21:20   60.1    89    7.6   210     10.7    848     0.00       0     73.1
 185   21:30   59.9    88    7.2   198     10.7    848     0.00       0     72.9
 185   21:40   59.8    88    7.0   193     10.4    848     0.00       0     72.7
 185   21:50   59.8    88    5.9   198      8.6    848     0.00       0     72.4
 185   22:00   59.5    88    5.3   214      9.0    848     0.00       0     72.2
 185   22:10   59.0    90    7.0   219     10.8    848     0.00       0     72.0
 185   22:20   59.0    90    8.1   223     11.8    848     0.00       0     71.9
 185   22:30   59.0    90    8.8   212     13.2    848     0.00       0     71.7
 185   22:40   58.9    90    9.7   220     14.5    849     0.00       0     71.5
 185   22:50   58.8    89    9.1   211     14.3    849     0.00       0     71.3
 185   23:00   58.8    89    9.9   201     14.7    848     0.00       0     71.2
 185   23:10   59.1    87    8.0   203     13.5    848     0.00       0     71.0
 185   23:20   58.7    88    6.5   207     10.2    848     0.00       0     70.8
 185   23:30   58.6    88    7.2   205     11.1    848     0.00       0     70.6
 185   23:40   58.5    89    8.5   192     13.7    848     0.00       0     70.4
 185   23:50   58.2    89    7.2   192     11.1    847     0.00       0     70.2
 186    0:00   58.1    89    6.2   214     10.3    848     0.00       0     70.1
 186    0:10   58.0    90    7.6   212     11.3    848     0.00       0     69.9
 186    0:20   57.9    90    6.7   220     10.5    848     0.00       0     69.8
 186    0:30   57.8    90    7.1   209     10.7    848     0.00       0     69.6
 186    0:40   57.8    89    7.9   209     12.6    848     0.00       0     69.5
 186    0:50   57.8    89    9.2   208     14.4    848     0.00       0     69.3
 186    1:00   57.7    89    8.3   200     12.6    848     0.00       0     69.2
 186    1:10   57.6    89    7.9   197     12.6    848     0.00       0     69.0
 186    1:20   57.4    90    7.8   196     12.3    848     0.00       0     68.8
 186    1:30   57.4    89    7.3   199     11.1    848     0.00       0     68.7
 186    1:40   57.2    89    6.5   191      9.7    848     0.00       0     68.6
 186    1:50   57.1    89    7.7   170     12.9    848     0.00       0     68.4
 186    2:00   57.3    89    7.4   178     11.2    848     0.00       0     68.3
 186    2:10   57.4    88    6.8   187     10.6    848     0.00       0     68.2
 186    2:20   57.2    88    6.3   192     10.8    848     0.00       0     68.1
 186    2:30   57.1    87    6.3   182      9.4    848     0.00       0     67.9
 186    2:40   56.4    86    4.0   146      6.2    848     0.00       0     67.8
 186    2:50   55.1    90    4.1   140      6.3    848     0.00       0     67.6
 186    3:00   54.7    91    4.0   159      4.7    848     0.00       0     67.5
 186    3:10   54.2    92    3.6   193      4.5    847     0.00       0     67.4
 186    3:20   53.6    92    2.7   176      3.9    846     0.00       0     67.3
 186    3:30   54.0    91    2.7   129      4.1    847     0.00       0     67.1
 186    3:40   53.9    91    2.9   142      3.9    847     0.00       0     67.0
 186    3:50   53.7    92    4.6   132      5.8    847     0.00       0     66.9
 186    4:00   53.3    92    5.6   138      7.1    847     0.00       0     66.8
 186    4:10   53.5    92    3.5   130      6.2    847     0.00       0     66.6
 186    4:20   53.8    92    4.2   134      5.3    847     0.00       1     66.5
 186    4:30   54.0    90    2.6   156      4.7    847     0.00       2     66.4
 186    4:40   53.0    91    2.1   159      2.9    847     0.00       6     66.3
 186    4:50   52.4    92    1.9   177      3.6    847     0.00      15     66.1
 186    5:00   54.2    92    1.7   115      3.1    847     0.00      46     66.0
 186    5:10   55.6    89    0.6   187      1.8    847     0.00      75     65.9
 186    5:20   56.2    88    0.8   225      2.3    847     0.00     107     65.8
 186    5:30   56.8    87    1.2   175      2.9    847     0.00     135     65.7
 186    5:40   57.9    86    2.9   134      4.5    847     0.00     162     65.6
 186    5:50   58.4    86    2.8   118      3.9    847     0.00     190     65.6
 186    6:00   59.3    84    2.2    96      3.6    847     0.00     219     65.7
 186    6:10   60.0    82    2.7    86      4.3    848     0.00     251     65.8
 186    6:20   60.2    82    2.5    49      3.9    849     0.00     283     66.0
 186    6:30   60.8    80    2.5    50      4.1    849     0.00     316     66.2
 186    6:40   61.9    77    2.0    42      3.4    849     0.00     351     66.4
 186    6:50   63.0    74    1.4   343      3.8    848     0.00     383     66.7
 186    7:00   63.7    73    1.8   266      3.5    848     0.00     415     67.1
 186    7:10   65.2    69    1.2   141      3.5    849     0.00     444     67.5
 186    7:20   66.2    67    1.5    92      4.0    849     0.00     476     67.9
 186    7:30   66.8    66    1.7    78      3.7    849     0.00     507     68.4
 186    7:40   66.7    68    2.5    55      5.3    849     0.00     538     68.9
 186    7:50   66.9    67    3.5    64      6.1    849     0.00     568     69.4
 186    8:00   66.6    69    4.4    68      8.1    849     0.00     598     70.0
 186    8:10   66.7    68    4.9    56      7.0    849     0.00     629     70.6
 186    8:20   67.0    66    3.5    88      6.1    849     0.00     656     71.3
 186    8:30   68.3    64    3.7    71      7.2    849     0.00     684     72.0
 186    8:40   68.9    61    2.5    63      5.6    849     0.00     710     72.7
 186    8:50   69.8    58    2.5   104      5.3    849     0.00     736     73.3
 186    9:00   70.9    55    2.2   127      5.9    849     0.00     760     74.1
 186    9:10   72.2    52    2.6   171      6.7    849     0.00     783     74.8
 186    9:20   72.3    50    1.8   292      3.7    849     0.00     807     75.7
 186    9:30   72.7    49    2.2    61      5.9    850     0.00     828     76.4
 186    9:40   74.5    44    1.4   218      5.0    849     0.00     847     77.3
 186    9:50   74.2    43    2.1   286      5.6    849     0.00     865     78.1
 186   10:00   74.7    42    3.7   237      7.7    849     0.00     883     79.0
 186   10:10   75.0    40    3.1    50      5.6    849     0.00     900     79.9
 186   10:20   76.1    40    2.8   253      6.1    849     0.00     915     80.9
 186   10:30   77.1    39    3.3   170      7.9    849     0.00     930     81.8
 186   10:40   77.0    38    3.3   252      8.9    849     0.00     942     82.6
 186   10:50   77.5    36    2.8   248      6.7    848     0.00     954     83.4
 186   11:00   77.7    36    3.7   268      9.6    848     0.00     964     84.3
 186   11:10   76.8    36    3.9     8      7.8    848     0.00     977     85.1
 186   11:20   79.0    34    3.1   109      7.5    848     0.00     990     86.0
 186   11:30   80.6    31    4.0   213     11.0    848     0.00     996     86.9
 186   11:40   79.8    32    4.7   271     10.6    848     0.00    1005     87.8
 186   11:50   79.8    31    5.6   308     11.1    848     0.00    1008     88.7
 186   12:00   79.5    29    3.9   304     10.1    848     0.00     999     89.6
 186   12:10   80.0    29    4.8   335     13.5    848     0.00     993     90.5
 186   12:20   81.1    29    7.5   317     13.9    848     0.00     996     91.3
 186   12:30   81.6    27    4.9   266     10.2    847     0.00    1003     92.2
 186   12:40   81.6    26    3.7   316      8.4    847     0.00    1013     93.0
 186   12:50   82.4    26    4.4   258     10.0    848     0.00     989     93.8
 186   13:00   82.3    25    4.7   296     10.8    848     0.00     979     94.6
 186   13:10   82.2    24    5.6   287     11.6    848     0.00     969     95.4
 186   13:20   84.0    20    4.6   250     10.2    847     0.00     964     96.1
 186   13:30   84.7    16    6.0   188     12.1    847     0.00     952     96.8
 186   13:40   85.0    17    7.0   228     15.3    847     0.00     928     97.4
 186   13:50   84.4    18    6.4   263     13.0    847     0.00     910     98.0
 186   14:00   83.0    19    4.3   349      9.1    847     0.00     898     98.4
 186   14:10   84.5    17    8.9   253     15.7    847     0.00     882     99.0
 186   14:20   84.7    17    5.9   286     10.8    847     0.00     861     99.4
 186   14:30   85.1    17    5.8   230     12.1    847     0.00     838     99.8
 186   14:40   85.4    16    4.6   206      9.1    847     0.00     819    100.1
 186   14:50   84.8    18    8.1   276     14.0    847     0.00     804    100.5
 186   15:00   84.5    18    3.9   237      8.8    847     0.00     788    100.7
 186   15:10   84.8    18    7.8   276     13.4    847     0.00     688    100.9
 186   15:20   83.7    20    7.7   291     13.9    847     0.00     475    101.1
 186   15:30   83.6    20    7.4   295     12.7    847     0.00     535    101.0
 186   15:40   83.4    20    5.8   279     11.8    846     0.00     455    100.8
 186   15:50   84.1    19    6.9   277     16.2    846     0.00     484    100.6
 186   16:00   84.6    18    7.6   251     13.1    846     0.00     407    100.3
 186   16:10   84.7    18    6.2   246     11.1    846     0.00     331     99.9
 186   16:20   84.8    18    7.2   219     12.8    846     0.00     318     99.5
 186   16:30   84.4    18    7.3   209     11.3    846     0.00     284     99.0
 186   16:40   83.9    18   10.3   268     14.0    846     0.00     257     98.5
 186   16:50   83.3    20    8.5   256     14.1    847     0.00     232     97.9
 186   17:00   83.0    19    8.6   260     12.8    847     0.00     202     97.3
 186   17:10   82.5    19    7.8   275     12.1    847     0.00     123     96.7
 186   17:20   81.6    20    8.6   283     13.4    846     0.00      98     96.2
 186   17:30   81.1    21    8.9   271     12.2    846     0.00     108     95.6
 186   17:40   80.9    22    7.4   276     11.4    847     0.00     102     95.0
 186   17:50   80.3    24    6.2   271      8.6    847     0.00      76     94.4
 186   18:00   79.7    24    7.2   281     10.6    847     0.00      56     93.8
 186   18:10   79.1    25    7.6   290     10.7    847     0.00      50     93.3
 186   18:20   78.6    26    8.1   292     11.0    847     0.00      45     92.7

Return to Carson Sink graphs page.


Western Regional Climate Center,wrcc@dri.edu